createdAt,value
2018-06-04T00:02:44.459Z,99.90
2018-06-04T00:07:18.960Z,99.90
2018-06-04T00:11:53.577Z,99.90
2018-06-04T00:16:28.234Z,99.90
2018-06-04T00:21:02.534Z,99.90
2018-06-04T00:25:36.894Z,99.90
2018-06-04T00:30:11.455Z,99.90
2018-06-04T00:34:46.008Z,99.90
2018-06-04T00:43:53.966Z,99.90
2018-06-04T00:48:28.334Z,99.90
2018-06-04T00:53:03.182Z,99.90
2018-06-04T00:57:37.406Z,99.90
2018-06-04T01:02:11.826Z,99.90
2018-06-04T01:06:46.251Z,99.90
2018-06-04T01:11:20.461Z,99.90
2018-06-04T01:15:54.723Z,99.90
2018-06-04T01:20:29.070Z,99.90
2018-06-04T01:25:03.539Z,99.90
2018-06-04T01:29:37.974Z,99.90
2018-06-04T01:34:12.357Z,99.90
2018-06-04T01:38:47.008Z,99.90
2018-06-04T01:43:21.214Z,99.90
2018-06-04T01:47:55.611Z,99.90
2018-06-04T01:52:29.976Z,99.90
2018-06-04T02:01:38.321Z,99.90
2018-06-04T02:06:12.686Z,99.90
2018-06-04T02:10:46.899Z,99.90
2018-06-04T02:19:55.218Z,99.90
2018-06-04T02:24:29.737Z,99.90
2018-06-04T02:29:04.175Z,99.90
2018-06-04T02:33:38.467Z,99.90
2018-06-04T02:38:13.249Z,99.90
2018-06-04T02:42:47.539Z,99.90
2018-06-04T02:51:56.811Z,99.90
2018-06-04T02:56:31.110Z,99.90
2018-06-04T03:01:05.619Z,99.90
2018-06-04T03:05:40.151Z,99.90
2018-06-04T03:10:15.306Z,99.90
2018-06-04T03:14:49.985Z,99.90
2018-06-04T03:19:24.407Z,99.90
2018-06-04T03:23:58.842Z,99.90
2018-06-04T03:28:33.163Z,99.90
2018-06-04T03:33:07.943Z,99.90
2018-06-04T03:37:42.437Z,99.90
2018-06-04T03:42:16.902Z,99.90
2018-06-04T03:46:51.550Z,99.90
2018-06-04T03:51:25.842Z,99.90
2018-06-04T03:56:00.562Z,99.90
2018-06-04T04:05:09.056Z,99.90
2018-06-04T04:09:43.378Z,99.90
2018-06-04T04:14:17.930Z,99.90
2018-06-04T04:18:52.198Z,99.90
2018-06-04T04:23:26.443Z,99.90
2018-06-04T04:28:01.359Z,99.90
2018-06-04T04:32:36.378Z,99.90
2018-06-04T04:37:11.162Z,99.90
2018-06-04T04:41:45.517Z,99.90
2018-06-04T04:46:20.196Z,99.90
2018-06-04T04:50:55.346Z,99.90
2018-06-04T04:55:29.543Z,99.90
2018-06-04T05:00:04.948Z,99.90
2018-06-04T05:04:39.477Z,99.90
2018-06-04T05:09:14.552Z,99.90
2018-06-04T05:13:48.978Z,99.90
2018-06-04T05:18:23.439Z,99.90
2018-06-04T05:22:57.729Z,99.90
2018-06-04T05:27:32.110Z,99.90
2018-06-04T05:32:06.718Z,99.90
2018-06-04T05:36:41.261Z,99.90
2018-06-04T05:41:16.337Z,99.90
2018-06-04T05:45:51.014Z,99.90
2018-06-04T05:50:25.458Z,99.90
2018-06-04T05:54:59.882Z,99.90
2018-06-04T05:59:34.271Z,99.90
2018-06-04T06:04:08.650Z,99.90
2018-06-04T06:08:43.026Z,99.90
2018-06-04T06:13:18.021Z,99.90
2018-06-04T06:17:52.514Z,99.90
2018-06-04T06:22:26.861Z,99.90
2018-06-04T06:27:01.192Z,99.70
2018-06-04T06:31:35.550Z,99.30
2018-06-04T06:40:43.954Z,98.20
2018-06-04T06:45:18.405Z,97.90
2018-06-04T06:49:52.946Z,98.10
2018-06-04T06:54:27.376Z,98.00
2018-06-04T06:59:01.810Z,97.50
2018-06-04T07:03:36.338Z,96.50
2018-06-04T07:08:11.271Z,95.70
2018-06-04T07:12:45.741Z,95.80
2018-06-04T07:17:20.217Z,95.10
2018-06-04T07:21:54.473Z,95.40
2018-06-04T07:26:28.696Z,94.70
2018-06-04T07:31:03.106Z,94.50
2018-06-04T07:35:37.583Z,93.80
2018-06-04T07:40:11.953Z,93.20
2018-06-04T07:44:46.810Z,93.40
2018-06-04T07:49:21.454Z,93.10
2018-06-04T07:53:55.881Z,91.20
2018-06-04T07:58:30.117Z,91.10
2018-06-04T08:03:04.314Z,90.00
2018-06-04T08:07:38.822Z,88.00
2018-06-04T08:12:13.083Z,86.80
2018-06-04T08:16:47.622Z,85.10
2018-06-04T08:21:22.187Z,84.40
2018-06-04T08:25:56.462Z,83.00
2018-06-04T08:30:31.009Z,82.70
2018-06-04T08:35:05.475Z,80.80
2018-06-04T08:39:39.710Z,80.70
2018-06-04T08:44:14.110Z,78.00
2018-06-04T08:48:48.555Z,72.50
2018-06-04T08:53:22.762Z,68.70
2018-06-04T08:57:57.544Z,65.10
2018-06-04T09:02:33.031Z,60.20
2018-06-04T09:07:07.407Z,57.00
2018-06-04T09:11:41.651Z,55.60
2018-06-04T09:16:16.357Z,55.50
2018-06-04T09:20:50.999Z,54.10
2018-06-04T09:29:59.279Z,50.70
2018-06-04T09:34:33.823Z,51.00
2018-06-04T09:39:08.496Z,50.70
2018-06-04T09:43:42.694Z,53.10
2018-06-04T09:48:17.122Z,53.10
2018-06-04T09:52:51.788Z,52.00
2018-06-04T09:57:26.237Z,47.90
2018-06-04T10:02:00.574Z,48.20
2018-06-04T10:06:35.154Z,47.20
2018-06-04T10:11:09.485Z,48.00
2018-06-04T10:15:44.042Z,45.70
2018-06-04T10:20:18.478Z,48.40
2018-06-04T10:24:52.805Z,47.80
2018-06-04T10:29:27.240Z,45.50
2018-06-04T10:34:01.699Z,44.10
2018-06-04T10:38:36.150Z,42.40
2018-06-04T10:43:10.550Z,42.00
2018-06-04T10:47:45.039Z,44.60
2018-06-04T10:52:19.507Z,43.50
2018-06-04T10:56:54.493Z,42.60
2018-06-04T11:01:28.956Z,43.10
2018-06-04T11:06:03.449Z,43.50
2018-06-04T11:10:37.846Z,42.30
2018-06-04T11:15:12.621Z,42.80
2018-06-04T11:19:46.978Z,43.80
2018-06-04T11:24:21.309Z,45.00
2018-06-04T11:28:55.766Z,46.20
2018-06-04T11:33:30.054Z,46.10
2018-06-04T11:38:04.886Z,45.10
2018-06-04T11:42:39.094Z,45.50
2018-06-04T11:47:13.702Z,47.70
2018-06-04T11:51:48.034Z,49.30
2018-06-04T11:56:22.516Z,46.70
2018-06-04T12:00:57.053Z,44.10
2018-06-04T12:05:31.535Z,40.50
2018-06-04T12:10:05.937Z,40.60
2018-06-04T12:14:40.245Z,41.00
2018-06-04T12:19:14.537Z,44.20
2018-06-04T12:23:48.946Z,46.70
2018-06-04T12:28:23.503Z,49.30
2018-06-04T12:32:57.819Z,52.20
2018-06-04T12:37:32.061Z,50.30
2018-06-04T12:42:06.401Z,48.20
2018-06-04T12:46:41.082Z,49.50
2018-06-04T12:51:15.505Z,47.20
2018-06-04T12:55:49.737Z,44.10
2018-06-04T13:00:24.722Z,43.70
2018-06-04T13:09:33.174Z,47.70
2018-06-04T13:14:07.679Z,51.20
2018-06-04T13:18:41.881Z,51.30
2018-06-04T13:23:16.261Z,47.70
2018-06-04T13:27:50.736Z,46.70
2018-06-04T13:32:25.158Z,46.70
2018-06-04T13:36:59.545Z,48.20
2018-06-04T13:41:34.082Z,48.60
2018-06-04T13:46:08.434Z,48.60
2018-06-04T13:50:42.828Z,50.20
2018-06-04T13:55:17.273Z,50.20
2018-06-04T13:59:52.033Z,50.50
2018-06-04T14:04:26.595Z,52.20
2018-06-04T14:09:01.275Z,55.10
2018-06-04T14:13:35.830Z,57.10
2018-06-04T14:18:10.220Z,58.60
2018-06-04T14:22:44.698Z,61.10
2018-06-04T14:27:18.889Z,61.20
2018-06-04T14:31:53.419Z,58.40
2018-06-04T14:36:28.070Z,57.00
2018-06-04T14:41:02.649Z,58.70
2018-06-04T14:45:36.933Z,60.50
2018-06-04T14:54:45.740Z,59.80
2018-06-04T14:59:19.967Z,61.00
2018-06-04T15:03:55.132Z,58.60
2018-06-04T15:08:29.707Z,58.90
2018-06-04T15:13:04.289Z,59.40
2018-06-04T15:17:38.925Z,60.60
2018-06-04T15:22:13.718Z,62.30
2018-06-04T15:26:48.003Z,63.40
2018-06-04T15:35:56.782Z,66.10
2018-06-04T15:40:31.186Z,67.20
2018-06-04T15:45:06.278Z,68.30
2018-06-04T15:49:41.025Z,67.00
2018-06-04T15:54:16.098Z,66.40
2018-06-04T15:58:51.737Z,65.70
2018-06-04T16:03:26.399Z,66.30
2018-06-04T16:08:01.860Z,65.60
2018-06-04T16:12:37.076Z,66.60
2018-06-04T16:17:12.023Z,68.10
2018-06-04T16:21:46.577Z,69.50
2018-06-04T16:26:21.065Z,68.90
2018-06-04T16:30:55.518Z,70.70
2018-06-04T16:35:30.358Z,69.70
2018-06-04T16:40:08.005Z,70.10
2018-06-04T16:44:42.708Z,69.90
2018-06-04T16:49:17.177Z,72.00
2018-06-04T16:53:51.485Z,75.30
2018-06-04T17:03:00.825Z,84.40
2018-06-04T17:07:35.298Z,87.50
2018-06-04T17:12:09.892Z,88.10
2018-06-04T17:16:44.925Z,90.10
2018-06-04T17:21:19.247Z,91.00
2018-06-04T17:25:53.558Z,93.30
2018-06-04T17:30:27.766Z,94.40
2018-06-04T17:35:02.264Z,94.70
2018-06-04T17:39:36.614Z,94.70
2018-06-04T17:44:11.007Z,94.60
2018-06-04T17:48:46.067Z,94.20
2018-06-04T17:53:20.482Z,93.30
2018-06-04T17:57:55.085Z,94.40
2018-06-04T18:02:29.503Z,94.90
2018-06-04T18:07:04.015Z,96.60
2018-06-04T18:11:38.398Z,96.90
2018-06-04T18:16:13.364Z,95.80
2018-06-04T18:20:47.590Z,93.80
2018-06-04T18:25:21.950Z,93.20
2018-06-04T18:29:56.237Z,92.50
2018-06-04T18:34:31.058Z,92.40
2018-06-04T18:39:08.146Z,92.40
2018-06-04T18:43:42.837Z,94.00
2018-06-04T18:48:18.437Z,93.80
2018-06-04T18:52:52.763Z,93.70
2018-06-04T18:57:27.414Z,94.30
2018-06-04T19:02:01.729Z,95.30
2018-06-04T19:06:36.158Z,95.60
2018-06-04T19:15:44.497Z,97.60
2018-06-04T19:20:18.849Z,98.70
2018-06-04T19:29:27.035Z,99.70
2018-06-04T19:34:01.666Z,99.80
2018-06-04T19:38:36.009Z,99.90
2018-06-04T19:43:10.452Z,99.90
2018-06-04T19:47:44.857Z,99.90
2018-06-04T19:52:19.213Z,99.90
2018-06-04T19:56:53.837Z,99.90
2018-06-04T20:01:28.652Z,99.90
2018-06-04T20:06:03.033Z,99.90
2018-06-04T20:10:38.112Z,99.90
2018-06-04T20:15:12.377Z,99.90
2018-06-04T20:19:47.618Z,99.90
2018-06-04T20:33:30.898Z,99.90
2018-06-04T20:38:05.148Z,99.90
2018-06-04T20:42:39.941Z,99.90
2018-06-04T20:47:14.188Z,99.90
2018-06-04T20:51:48.546Z,99.90
2018-06-04T20:56:22.762Z,99.90
2018-06-04T21:00:57.770Z,99.90
2018-06-04T21:05:32.222Z,99.90
2018-06-04T21:10:06.442Z,99.90
2018-06-04T21:14:41.004Z,99.90
2018-06-04T21:19:15.346Z,99.90
2018-06-04T21:23:50.413Z,99.90
2018-06-04T21:28:24.960Z,99.90
2018-06-04T21:37:33.754Z,99.90
2018-06-04T21:46:42.018Z,99.90
2018-06-04T21:51:16.482Z,99.90
2018-06-04T21:55:50.952Z,99.90
2018-06-04T22:00:25.664Z,99.90
2018-06-04T22:05:00.050Z,99.90
2018-06-04T22:14:08.340Z,99.90
2018-06-04T22:18:42.678Z,99.90
2018-06-04T22:23:17.098Z,99.90
2018-06-04T22:27:51.541Z,99.90
2018-06-04T22:32:26.001Z,99.90
2018-06-04T22:37:01.029Z,99.90
2018-06-04T22:41:35.377Z,99.90
2018-06-04T22:46:09.874Z,99.90
2018-06-04T22:50:44.409Z,99.90
2018-06-04T22:55:18.886Z,99.90
2018-06-04T22:59:53.328Z,99.90
2018-06-04T23:04:27.761Z,99.90
2018-06-04T23:09:02.404Z,99.90
2018-06-04T23:13:43.386Z,99.90
2018-06-04T23:18:17.986Z,99.90
2018-06-04T23:22:52.464Z,99.90
2018-06-04T23:27:26.701Z,99.90
2018-06-04T23:32:01.013Z,99.90
2018-06-04T23:36:35.554Z,99.90
2018-06-04T23:41:10.081Z,99.90
2018-06-04T23:45:44.508Z,99.90
2018-06-04T23:50:19.164Z,99.90
2018-06-04T23:54:53.473Z,99.90
2018-06-04T23:59:27.850Z,99.90
